sensor_id;sensor_type;location;lat;lon;timestamp;P1;durP1;ratioP1;P2;durP2;ratioP2
19754;SDS011;10036;47.812;9.274;2023-12-20T00:00:56;2.50;;;2.30;;
19754;SDS011;10036;47.812;9.274;2023-12-20T00:03:23;2.70;;;2.50;;
19754;SDS011;10036;47.812;9.274;2023-12-20T00:05:51;2.72;;;2.53;;
19754;SDS011;10036;47.812;9.274;2023-12-20T00:08:18;3.22;;;2.50;;
19754;SDS011;10036;47.812;9.274;2023-12-20T00:10:45;3.42;;;2.97;;
19754;SDS011;10036;47.812;9.274;2023-12-20T00:13:12;2.90;;;2.50;;
19754;SDS011;10036;47.812;9.274;2023-12-20T00:15:39;2.80;;;2.60;;
19754;SDS011;10036;47.812;9.274;2023-12-20T00:18:06;2.58;;;2.38;;
19754;SDS011;10036;47.812;9.274;2023-12-20T00:20:33;2.65;;;2.47;;
19754;SDS011;10036;47.812;9.274;2023-12-20T00:23:01;2.50;;;2.30;;
19754;SDS011;10036;47.812;9.274;2023-12-20T00:25:28;2.60;;;2.40;;
19754;SDS011;10036;47.812;9.274;2023-12-20T00:27:55;2.58;;;2.38;;
19754;SDS011;10036;47.812;9.274;2023-12-20T00:30:21;2.60;;;2.40;;
19754;SDS011;10036;47.812;9.274;2023-12-20T00:32:48;2.58;;;2.38;;
19754;SDS011;10036;47.812;9.274;2023-12-20T00:35:15;2.55;;;2.35;;
19754;SDS011;10036;47.812;9.274;2023-12-20T00:37:43;2.33;;;2.13;;
19754;SDS011;10036;47.812;9.274;2023-12-20T00:40:11;1.92;;;1.83;;
19754;SDS011;10036;47.812;9.274;2023-12-20T00:42:38;1.88;;;1.77;;
19754;SDS011;10036;47.812;9.274;2023-12-20T00:45:05;1.90;;;1.80;;
19754;SDS011;10036;47.812;9.274;2023-12-20T00:47:33;1.80;;;1.70;;
19754;SDS011;10036;47.812;9.274;2023-12-20T00:50:00;2.25;;;2.10;;
19754;SDS011;10036;47.812;9.274;2023-12-20T00:52:27;2.88;;;2.58;;
19754;SDS011;10036;47.812;9.274;2023-12-20T00:54:53;2.03;;;1.90;;
19754;SDS011;10036;47.812;9.274;2023-12-20T00:57:22;2.60;;;2.40;;
19754;SDS011;10036;47.812;9.274;2023-12-20T00:59:48;2.60;;;2.40;;
19754;SDS011;10036;47.812;9.274;2023-12-20T01:02:15;3.28;;;2.40;;
19754;SDS011;10036;47.812;9.274;2023-12-20T01:04:42;3.08;;;2.80;;
19754;SDS011;10036;47.812;9.274;2023-12-20T01:07:09;3.03;;;2.72;;
19754;SDS011;10036;47.812;9.274;2023-12-20T01:09:36;2.90;;;2.70;;
19754;SDS011;10036;47.812;9.274;2023-12-20T01:12:03;2.58;;;2.38;;
19754;SDS011;10036;47.812;9.274;2023-12-20T01:14:31;3.42;;;2.80;;
19754;SDS011;10036;47.812;9.274;2023-12-20T01:16:58;3.15;;;2.88;;
19754;SDS011;10036;47.812;9.274;2023-12-20T01:19:25;3.05;;;2.60;;
19754;SDS011;10036;47.812;9.274;2023-12-20T01:21:54;3.78;;;3.20;;
19754;SDS011;10036;47.812;9.274;2023-12-20T01:24:21;3.08;;;2.70;;
19754;SDS011;10036;47.812;9.274;2023-12-20T01:26:48;3.42;;;3.13;;
19754;SDS011;10036;47.812;9.274;2023-12-20T01:29:15;3.10;;;2.78;;
19754;SDS011;10036;47.812;9.274;2023-12-20T01:31:43;3.33;;;3.03;;
19754;SDS011;10036;47.812;9.274;2023-12-20T01:34:10;4.82;;;3.28;;
19754;SDS011;10036;47.812;9.274;2023-12-20T01:36:37;4.00;;;3.20;;
19754;SDS011;10036;47.812;9.274;2023-12-20T01:39:04;3.28;;;3.03;;
19754;SDS011;10036;47.812;9.274;2023-12-20T01:41:31;3.65;;;3.30;;
19754;SDS011;10036;47.812;9.274;2023-12-20T01:43:58;3.40;;;3.10;;
19754;SDS011;10036;47.812;9.274;2023-12-20T01:46:25;3.40;;;3.10;;
19754;SDS011;10036;47.812;9.274;2023-12-20T01:48:54;3.50;;;3.20;;
19754;SDS011;10036;47.812;9.274;2023-12-20T01:51:20;3.65;;;3.13;;
19754;SDS011;10036;47.812;9.274;2023-12-20T01:53:48;3.30;;;3.00;;
19754;SDS011;10036;47.812;9.274;2023-12-20T01:56:15;3.50;;;3.20;;
19754;SDS011;10036;47.812;9.274;2023-12-20T01:58:43;3.42;;;3.13;;
19754;SDS011;10036;47.812;9.274;2023-12-20T02:01:11;3.45;;;3.15;;
19754;SDS011;10036;47.812;9.274;2023-12-20T02:03:38;4.43;;;3.17;;
19754;SDS011;10036;47.812;9.274;2023-12-20T02:06:08;3.22;;;2.97;;
19754;SDS011;10036;47.812;9.274;2023-12-20T02:08:35;4.47;;;3.50;;
19754;SDS011;10036;47.812;9.274;2023-12-20T02:11:02;3.90;;;3.50;;
19754;SDS011;10036;47.812;9.274;2023-12-20T02:13:30;4.07;;;3.33;;
19754;SDS011;10036;47.812;9.274;2023-12-20T02:15:57;3.65;;;2.95;;
19754;SDS011;10036;47.812;9.274;2023-12-20T02:18:24;3.97;;;3.38;;
19754;SDS011;10036;47.812;9.274;2023-12-20T02:20:51;4.30;;;3.20;;
19754;SDS011;10036;47.812;9.274;2023-12-20T02:23:19;4.15;;;3.50;;
19754;SDS011;10036;47.812;9.274;2023-12-20T02:25:46;5.47;;;4.25;;
19754;SDS011;10036;47.812;9.274;2023-12-20T02:28:13;5.88;;;4.82;;
19754;SDS011;10036;47.812;9.274;2023-12-20T02:30:40;4.50;;;4.10;;
19754;SDS011;10036;47.812;9.274;2023-12-20T02:33:07;5.10;;;3.78;;
19754;SDS011;10036;47.812;9.274;2023-12-20T02:35:38;3.58;;;3.28;;
19754;SDS011;10036;47.812;9.274;2023-12-20T02:38:05;4.20;;;3.25;;
19754;SDS011;10036;47.812;9.274;2023-12-20T02:40:33;4.53;;;3.92;;
19754;SDS011;10036;47.812;9.274;2023-12-20T02:42:59;4.22;;;3.70;;
19754;SDS011;10036;47.812;9.274;2023-12-20T02:45:26;4.18;;;3.50;;
19754;SDS011;10036;47.812;9.274;2023-12-20T02:47:53;4.07;;;3.67;;
19754;SDS011;10036;47.812;9.274;2023-12-20T02:50:20;5.75;;;4.00;;
19754;SDS011;10036;47.812;9.274;2023-12-20T02:52:47;5.88;;;4.05;;
19754;SDS011;10036;47.812;9.274;2023-12-20T02:55:14;4.43;;;4.03;;
19754;SDS011;10036;47.812;9.274;2023-12-20T02:57:42;5.57;;;4.20;;
19754;SDS011;10036;47.812;9.274;2023-12-20T03:00:09;5.82;;;4.13;;
19754;SDS011;10036;47.812;9.274;2023-12-20T03:02:37;6.00;;;4.38;;
19754;SDS011;10036;47.812;9.274;2023-12-20T03:05:04;4.68;;;3.80;;
19754;SDS011;10036;47.812;9.274;2023-12-20T03:07:31;4.32;;;3.80;;
19754;SDS011;10036;47.812;9.274;2023-12-20T03:09:58;6.15;;;3.95;;
19754;SDS011;10036;47.812;9.274;2023-12-20T03:12:25;4.35;;;3.78;;
19754;SDS011;10036;47.812;9.274;2023-12-20T03:14:53;4.85;;;4.05;;
19754;SDS011;10036;47.812;9.274;2023-12-20T03:17:20;5.40;;;3.85;;
19754;SDS011;10036;47.812;9.274;2023-12-20T03:19:46;4.95;;;3.83;;
19754;SDS011;10036;47.812;9.274;2023-12-20T03:22:13;5.13;;;4.28;;
19754;SDS011;10036;47.812;9.274;2023-12-20T03:24:40;6.80;;;4.50;;
19754;SDS011;10036;47.812;9.274;2023-12-20T03:27:07;6.75;;;4.20;;
19754;SDS011;10036;47.812;9.274;2023-12-20T03:29:34;6.13;;;4.47;;
19754;SDS011;10036;47.812;9.274;2023-12-20T03:32:02;6.50;;;4.13;;
19754;SDS011;10036;47.812;9.274;2023-12-20T03:34:30;6.45;;;4.40;;
19754;SDS011;10036;47.812;9.274;2023-12-20T03:36:56;8.85;;;5.55;;
19754;SDS011;10036;47.812;9.274;2023-12-20T03:39:23;8.13;;;4.97;;
19754;SDS011;10036;47.812;9.274;2023-12-20T03:41:50;6.97;;;5.05;;
19754;SDS011;10036;47.812;9.274;2023-12-20T03:44:17;7.45;;;5.72;;
19754;SDS011;10036;47.812;9.274;2023-12-20T03:46:44;8.32;;;5.82;;
19754;SDS011;10036;47.812;9.274;2023-12-20T03:49:12;9.07;;;6.50;;
19754;SDS011;10036;47.812;9.274;2023-12-20T03:51:39;8.02;;;5.78;;
19754;SDS011;10036;47.812;9.274;2023-12-20T03:54:07;8.63;;;6.05;;
19754;SDS011;10036;47.812;9.274;2023-12-20T03:56:33;9.45;;;6.05;;
19754;SDS011;10036;47.812;9.274;2023-12-20T03:59:00;9.80;;;6.15;;
19754;SDS011;10036;47.812;9.274;2023-12-20T04:01:27;9.27;;;6.38;;
19754;SDS011;10036;47.812;9.274;2023-12-20T04:03:54;10.60;;;6.63;;
19754;SDS011;10036;47.812;9.274;2023-12-20T04:06:22;9.23;;;6.93;;
19754;SDS011;10036;47.812;9.274;2023-12-20T04:08:49;10.88;;;6.90;;
19754;SDS011;10036;47.812;9.274;2023-12-20T04:11:16;9.98;;;7.30;;
19754;SDS011;10036;47.812;9.274;2023-12-20T04:13:43;10.23;;;7.70;;
19754;SDS011;10036;47.812;9.274;2023-12-20T04:16:09;10.30;;;7.63;;
19754;SDS011;10036;47.812;9.274;2023-12-20T04:18:36;11.57;;;7.75;;
19754;SDS011;10036;47.812;9.274;2023-12-20T04:21:03;11.00;;;7.60;;
19754;SDS011;10036;47.812;9.274;2023-12-20T04:23:32;11.50;;;7.90;;
19754;SDS011;10036;47.812;9.274;2023-12-20T04:25:58;12.55;;;8.43;;
19754;SDS011;10036;47.812;9.274;2023-12-20T04:28:25;13.27;;;8.20;;
19754;SDS011;10036;47.812;9.274;2023-12-20T04:30:55;10.80;;;8.07;;
19754;SDS011;10036;47.812;9.274;2023-12-20T04:33:22;11.13;;;8.20;;
19754;SDS011;10036;47.812;9.274;2023-12-20T04:35:50;12.90;;;8.23;;
19754;SDS011;10036;47.812;9.274;2023-12-20T04:38:17;10.75;;;7.90;;
19754;SDS011;10036;47.812;9.274;2023-12-20T04:40:45;11.90;;;8.30;;
19754;SDS011;10036;47.812;9.274;2023-12-20T04:43:13;12.75;;;8.98;;
19754;SDS011;10036;47.812;9.274;2023-12-20T04:45:40;11.13;;;8.27;;
19754;SDS011;10036;47.812;9.274;2023-12-20T04:48:07;13.57;;;8.02;;
19754;SDS011;10036;47.812;9.274;2023-12-20T04:50:34;12.23;;;8.23;;
19754;SDS011;10036;47.812;9.274;2023-12-20T04:53:00;10.95;;;7.43;;
19754;SDS011;10036;47.812;9.274;2023-12-20T04:55:27;12.68;;;8.70;;
19754;SDS011;10036;47.812;9.274;2023-12-20T04:57:55;10.52;;;7.78;;
19754;SDS011;10036;47.812;9.274;2023-12-20T05:00:22;13.40;;;8.35;;
19754;SDS011;10036;47.812;9.274;2023-12-20T05:02:49;10.90;;;7.85;;
19754;SDS011;10036;47.812;9.274;2023-12-20T05:05:17;11.90;;;8.50;;
19754;SDS011;10036;47.812;9.274;2023-12-20T05:07:44;10.63;;;7.13;;
19754;SDS011;10036;47.812;9.274;2023-12-20T05:10:11;11.80;;;8.35;;
19754;SDS011;10036;47.812;9.274;2023-12-20T05:12:37;12.02;;;8.02;;
19754;SDS011;10036;47.812;9.274;2023-12-20T05:15:06;11.73;;;7.78;;
19754;SDS011;10036;47.812;9.274;2023-12-20T05:17:34;12.30;;;8.25;;
19754;SDS011;10036;47.812;9.274;2023-12-20T05:20:01;10.35;;;7.85;;
19754;SDS011;10036;47.812;9.274;2023-12-20T05:22:28;10.23;;;8.07;;
19754;SDS011;10036;47.812;9.274;2023-12-20T05:24:54;13.02;;;8.90;;
19754;SDS011;10036;47.812;9.274;2023-12-20T05:27:21;12.98;;;8.80;;
19754;SDS011;10036;47.812;9.274;2023-12-20T05:29:48;13.07;;;9.70;;
19754;SDS011;10036;47.812;9.274;2023-12-20T05:32:16;13.38;;;8.10;;
19754;SDS011;10036;47.812;9.274;2023-12-20T05:38:05;11.27;;;8.15;;
19754;SDS011;10036;47.812;9.274;2023-12-20T05:40:31;13.23;;;8.73;;
19754;SDS011;10036;47.812;9.274;2023-12-20T05:42:58;11.60;;;8.93;;
19754;SDS011;10036;47.812;9.274;2023-12-20T05:45:25;11.02;;;8.18;;
19754;SDS011;10036;47.812;9.274;2023-12-20T05:47:53;12.43;;;8.95;;
19754;SDS011;10036;47.812;9.274;2023-12-20T05:50:20;11.30;;;8.63;;
19754;SDS011;10036;47.812;9.274;2023-12-20T05:52:47;12.45;;;9.98;;
19754;SDS011;10036;47.812;9.274;2023-12-20T05:55:14;15.80;;;10.15;;
19754;SDS011;10036;47.812;9.274;2023-12-20T05:57:41;13.35;;;9.82;;
19754;SDS011;10036;47.812;9.274;2023-12-20T06:00:09;13.88;;;10.02;;
19754;SDS011;10036;47.812;9.274;2023-12-20T06:02:36;10.93;;;7.65;;
19754;SDS011;10036;47.812;9.274;2023-12-20T06:05:05;10.20;;;7.97;;
19754;SDS011;10036;47.812;9.274;2023-12-20T06:07:32;11.07;;;7.90;;
19754;SDS011;10036;47.812;9.274;2023-12-20T06:09:59;11.93;;;7.82;;
19754;SDS011;10036;47.812;9.274;2023-12-20T06:12:26;10.25;;;7.90;;
19754;SDS011;10036;47.812;9.274;2023-12-20T06:14:54;8.43;;;7.13;;
19754;SDS011;10036;47.812;9.274;2023-12-20T06:17:20;8.55;;;6.85;;
19754;SDS011;10036;47.812;9.274;2023-12-20T06:19:47;11.95;;;7.57;;
19754;SDS011;10036;47.812;9.274;2023-12-20T06:22:15;9.73;;;7.15;;
19754;SDS011;10036;47.812;9.274;2023-12-20T06:24:42;11.13;;;7.68;;
19754;SDS011;10036;47.812;9.274;2023-12-20T06:27:09;11.50;;;7.70;;
19754;SDS011;10036;47.812;9.274;2023-12-20T06:29:36;10.02;;;7.57;;
19754;SDS011;10036;47.812;9.274;2023-12-20T06:32:03;10.77;;;7.03;;
19754;SDS011;10036;47.812;9.274;2023-12-20T06:34:30;7.82;;;6.75;;
19754;SDS011;10036;47.812;9.274;2023-12-20T06:36:57;9.00;;;6.82;;
19754;SDS011;10036;47.812;9.274;2023-12-20T06:39:25;8.13;;;6.35;;
19754;SDS011;10036;47.812;9.274;2023-12-20T06:41:53;8.68;;;7.10;;
19754;SDS011;10036;47.812;9.274;2023-12-20T06:44:19;10.30;;;6.75;;
19754;SDS011;10036;47.812;9.274;2023-12-20T06:46:46;9.13;;;7.43;;
19754;SDS011;10036;47.812;9.274;2023-12-20T06:49:13;8.93;;;6.93;;
19754;SDS011;10036;47.812;9.274;2023-12-20T06:51:40;9.18;;;7.18;;
19754;SDS011;10036;47.812;9.274;2023-12-20T06:54:07;8.73;;;7.03;;
19754;SDS011;10036;47.812;9.274;2023-12-20T06:56:35;9.20;;;6.72;;
19754;SDS011;10036;47.812;9.274;2023-12-20T06:59:02;8.88;;;6.78;;
19754;SDS011;10036;47.812;9.274;2023-12-20T07:01:29;10.93;;;6.88;;
19754;SDS011;10036;47.812;9.274;2023-12-20T07:03:56;11.05;;;7.30;;
19754;SDS011;10036;47.812;9.274;2023-12-20T07:06:23;9.95;;;6.72;;
19754;SDS011;10036;47.812;9.274;2023-12-20T07:08:50;11.68;;;7.85;;
19754;SDS011;10036;47.812;9.274;2023-12-20T07:11:18;8.98;;;7.13;;
19754;SDS011;10036;47.812;9.274;2023-12-20T07:13:46;9.60;;;7.25;;
19754;SDS011;10036;47.812;9.274;2023-12-20T07:16:14;8.93;;;6.95;;
19754;SDS011;10036;47.812;9.274;2023-12-20T07:18:40;7.88;;;6.03;;
19754;SDS011;10036;47.812;9.274;2023-12-20T07:21:07;8.05;;;6.38;;
19754;SDS011;10036;47.812;9.274;2023-12-20T07:23:34;8.43;;;6.25;;
19754;SDS011;10036;47.812;9.274;2023-12-20T07:26:01;9.20;;;6.30;;
19754;SDS011;10036;47.812;9.274;2023-12-20T07:28:29;8.77;;;6.85;;
19754;SDS011;10036;47.812;9.274;2023-12-20T07:30:57;9.68;;;6.43;;
19754;SDS011;10036;47.812;9.274;2023-12-20T07:33:24;6.75;;;5.70;;
19754;SDS011;10036;47.812;9.274;2023-12-20T07:35:51;6.53;;;5.47;;
19754;SDS011;10036;47.812;9.274;2023-12-20T07:38:17;6.95;;;5.68;;
19754;SDS011;10036;47.812;9.274;2023-12-20T07:40:44;8.55;;;6.38;;
19754;SDS011;10036;47.812;9.274;2023-12-20T07:43:11;9.25;;;6.57;;
19754;SDS011;10036;47.812;9.274;2023-12-20T07:45:38;8.38;;;6.60;;
19754;SDS011;10036;47.812;9.274;2023-12-20T07:48:07;7.80;;;6.28;;
19754;SDS011;10036;47.812;9.274;2023-12-20T07:50:34;7.95;;;6.63;;
19754;SDS011;10036;47.812;9.274;2023-12-20T07:53:01;8.18;;;6.55;;
19754;SDS011;10036;47.812;9.274;2023-12-20T07:55:28;8.52;;;6.80;;
19754;SDS011;10036;47.812;9.274;2023-12-20T07:57:57;9.63;;;6.53;;
19754;SDS011;10036;47.812;9.274;2023-12-20T08:00:24;8.82;;;6.82;;
19754;SDS011;10036;47.812;9.274;2023-12-20T08:02:51;8.90;;;7.03;;
19754;SDS011;10036;47.812;9.274;2023-12-20T08:05:19;8.68;;;6.68;;
19754;SDS011;10036;47.812;9.274;2023-12-20T08:07:46;9.50;;;6.97;;
19754;SDS011;10036;47.812;9.274;2023-12-20T08:10:13;8.65;;;7.00;;
19754;SDS011;10036;47.812;9.274;2023-12-20T08:12:40;10.93;;;7.18;;
19754;SDS011;10036;47.812;9.274;2023-12-20T08:15:07;8.73;;;6.95;;
19754;SDS011;10036;47.812;9.274;2023-12-20T08:17:34;8.77;;;6.70;;
19754;SDS011;10036;47.812;9.274;2023-12-20T08:20:01;8.35;;;6.70;;
19754;SDS011;10036;47.812;9.274;2023-12-20T08:22:29;8.52;;;6.53;;
19754;SDS011;10036;47.812;9.274;2023-12-20T08:24:56;10.38;;;6.70;;
19754;SDS011;10036;47.812;9.274;2023-12-20T08:27:23;8.45;;;6.43;;
19754;SDS011;10036;47.812;9.274;2023-12-20T08:29:50;9.73;;;6.10;;
19754;SDS011;10036;47.812;9.274;2023-12-20T08:32:17;7.32;;;5.90;;
19754;SDS011;10036;47.812;9.274;2023-12-20T08:34:44;8.15;;;6.45;;
19754;SDS011;10036;47.812;9.274;2023-12-20T08:37:11;7.78;;;6.28;;
19754;SDS011;10036;47.812;9.274;2023-12-20T08:39:39;8.02;;;6.25;;
19754;SDS011;10036;47.812;9.274;2023-12-20T08:42:06;7.82;;;6.05;;
19754;SDS011;10036;47.812;9.274;2023-12-20T08:44:33;8.15;;;6.45;;
19754;SDS011;10036;47.812;9.274;2023-12-20T08:46:59;7.85;;;6.35;;
19754;SDS011;10036;47.812;9.274;2023-12-20T08:49:27;7.47;;;6.43;;
19754;SDS011;10036;47.812;9.274;2023-12-20T08:51:54;8.35;;;6.88;;
19754;SDS011;10036;47.812;9.274;2023-12-20T08:54:20;7.40;;;6.60;;
19754;SDS011;10036;47.812;9.274;2023-12-20T08:56:49;7.88;;;6.40;;
19754;SDS011;10036;47.812;9.274;2023-12-20T08:59:16;8.80;;;7.03;;
19754;SDS011;10036;47.812;9.274;2023-12-20T09:01:43;8.48;;;6.50;;
19754;SDS011;10036;47.812;9.274;2023-12-20T09:04:11;9.40;;;6.25;;
19754;SDS011;10036;47.812;9.274;2023-12-20T09:06:38;9.63;;;6.85;;
19754;SDS011;10036;47.812;9.274;2023-12-20T09:09:05;7.78;;;6.53;;
19754;SDS011;10036;47.812;9.274;2023-12-20T09:11:34;8.27;;;5.85;;
19754;SDS011;10036;47.812;9.274;2023-12-20T09:14:02;6.60;;;5.28;;
19754;SDS011;10036;47.812;9.274;2023-12-20T09:16:29;6.35;;;5.53;;
19754;SDS011;10036;47.812;9.274;2023-12-20T09:18:56;5.70;;;5.18;;
19754;SDS011;10036;47.812;9.274;2023-12-20T09:21:23;7.43;;;5.80;;
19754;SDS011;10036;47.812;9.274;2023-12-20T09:23:50;6.80;;;5.80;;
19754;SDS011;10036;47.812;9.274;2023-12-20T09:26:17;6.20;;;5.38;;
19754;SDS011;10036;47.812;9.274;2023-12-20T09:28:44;6.13;;;5.43;;
19754;SDS011;10036;47.812;9.274;2023-12-20T09:31:13;7.82;;;5.30;;
19754;SDS011;10036;47.812;9.274;2023-12-20T09:33:39;7.38;;;5.28;;
19754;SDS011;10036;47.812;9.274;2023-12-20T09:36:07;5.75;;;5.13;;
19754;SDS011;10036;47.812;9.274;2023-12-20T09:38:34;7.53;;;5.53;;
19754;SDS011;10036;47.812;9.274;2023-12-20T09:41:00;6.72;;;5.18;;
19754;SDS011;10036;47.812;9.274;2023-12-20T09:43:29;8.13;;;5.85;;
19754;SDS011;10036;47.812;9.274;2023-12-20T09:45:58;5.68;;;5.07;;
19754;SDS011;10036;47.812;9.274;2023-12-20T09:48:28;7.10;;;5.63;;
19754;SDS011;10036;47.812;9.274;2023-12-20T09:50:56;7.40;;;5.88;;
19754;SDS011;10036;47.812;9.274;2023-12-20T09:53:23;7.47;;;5.35;;
19754;SDS011;10036;47.812;9.274;2023-12-20T09:55:54;6.25;;;5.45;;
19754;SDS011;10036;47.812;9.274;2023-12-20T09:58:24;5.65;;;4.63;;
19754;SDS011;10036;47.812;9.274;2023-12-20T10:00:51;6.07;;;5.10;;
19754;SDS011;10036;47.812;9.274;2023-12-20T10:03:19;5.38;;;4.70;;
19754;SDS011;10036;47.812;9.274;2023-12-20T10:05:52;5.97;;;4.93;;
19754;SDS011;10036;47.812;9.274;2023-12-20T10:08:20;5.40;;;4.60;;
19754;SDS011;10036;47.812;9.274;2023-12-20T10:10:48;5.30;;;4.80;;
19754;SDS011;10036;47.812;9.274;2023-12-20T10:13:15;5.68;;;4.53;;
19754;SDS011;10036;47.812;9.274;2023-12-20T10:15:42;5.07;;;4.57;;
19754;SDS011;10036;47.812;9.274;2023-12-20T10:18:09;5.32;;;4.70;;
19754;SDS011;10036;47.812;9.274;2023-12-20T10:20:39;6.10;;;5.05;;
19754;SDS011;10036;47.812;9.274;2023-12-20T10:23:08;5.40;;;4.90;;
19754;SDS011;10036;47.812;9.274;2023-12-20T10:25:35;5.82;;;4.63;;
19754;SDS011;10036;47.812;9.274;2023-12-20T10:28:09;4.35;;;3.95;;
19754;SDS011;10036;47.812;9.274;2023-12-20T10:30:37;4.53;;;4.00;;
19754;SDS011;10036;47.812;9.274;2023-12-20T10:33:05;5.50;;;4.32;;
19754;SDS011;10036;47.812;9.274;2023-12-20T10:35:32;4.78;;;4.28;;
19754;SDS011;10036;47.812;9.274;2023-12-20T10:37:59;4.10;;;3.67;;
19754;SDS011;10036;47.812;9.274;2023-12-20T10:40:31;3.97;;;3.55;;
19754;SDS011;10036;47.812;9.274;2023-12-20T10:43:02;4.30;;;3.38;;
19754;SDS011;10036;47.812;9.274;2023-12-20T10:45:29;3.10;;;2.80;;
19754;SDS011;10036;47.812;9.274;2023-12-20T10:47:56;3.13;;;2.83;;
19754;SDS011;10036;47.812;9.274;2023-12-20T10:50:26;5.38;;;3.47;;
19754;SDS011;10036;47.812;9.274;2023-12-20T10:52:53;3.40;;;3.10;;
19754;SDS011;10036;47.812;9.274;2023-12-20T10:55:21;3.30;;;3.00;;
19754;SDS011;10036;47.812;9.274;2023-12-20T10:57:50;3.78;;;3.25;;
19754;SDS011;10036;47.812;9.274;2023-12-20T11:00:18;3.25;;;2.95;;
19754;SDS011;10036;47.812;9.274;2023-12-20T11:02:48;3.13;;;2.80;;
19754;SDS011;10036;47.812;9.274;2023-12-20T11:05:19;4.18;;;2.80;;
19754;SDS011;10036;47.812;9.274;2023-12-20T11:07:53;2.90;;;2.70;;
19754;SDS011;10036;47.812;9.274;2023-12-20T11:10:25;2.90;;;2.70;;
19754;SDS011;10036;47.812;9.274;2023-12-20T11:12:59;3.22;;;3.00;;
19754;SDS011;10036;47.812;9.274;2023-12-20T11:15:34;2.78;;;2.58;;
19754;SDS011;10036;47.812;9.274;2023-12-20T11:18:02;2.70;;;2.50;;
19754;SDS011;10036;47.812;9.274;2023-12-20T11:20:38;2.50;;;2.30;;
19754;SDS011;10036;47.812;9.274;2023-12-20T11:23:05;2.72;;;2.35;;
19754;SDS011;10036;47.812;9.274;2023-12-20T11:25:46;2.55;;;2.35;;
19754;SDS011;10036;47.812;9.274;2023-12-20T11:28:15;2.20;;;2.00;;
19754;SDS011;10036;47.812;9.274;2023-12-20T11:30:47;2.20;;;2.05;;
19754;SDS011;10036;47.812;9.274;2023-12-20T11:33:15;4.60;;;2.40;;
19754;SDS011;10036;47.812;9.274;2023-12-20T11:35:43;2.20;;;2.00;;
19754;SDS011;10036;47.812;9.274;2023-12-20T11:38:12;2.50;;;2.30;;
19754;SDS011;10036;47.812;9.274;2023-12-20T11:40:40;4.90;;;4.30;;
19754;SDS011;10036;47.812;9.274;2023-12-20T11:43:08;3.72;;;3.40;;
19754;SDS011;10036;47.812;9.274;2023-12-20T11:45:36;4.47;;;3.35;;
19754;SDS011;10036;47.812;9.274;2023-12-20T11:48:03;5.68;;;3.92;;
19754;SDS011;10036;47.812;9.274;2023-12-20T11:50:30;3.17;;;2.88;;
19754;SDS011;10036;47.812;9.274;2023-12-20T11:52:57;2.83;;;2.60;;
19754;SDS011;10036;47.812;9.274;2023-12-20T11:55:24;2.17;;;2.08;;
19754;SDS011;10036;47.812;9.274;2023-12-20T11:57:51;2.35;;;2.15;;
19754;SDS011;10036;47.812;9.274;2023-12-20T12:00:19;2.20;;;2.10;;
19754;SDS011;10036;47.812;9.274;2023-12-20T12:02:57;2.40;;;2.20;;
19754;SDS011;10036;47.812;9.274;2023-12-20T12:05:24;2.30;;;2.10;;
19754;SDS011;10036;47.812;9.274;2023-12-20T12:07:52;2.17;;;2.08;;
19754;SDS011;10036;47.812;9.274;2023-12-20T12:10:19;1.90;;;1.80;;
19754;SDS011;10036;47.812;9.274;2023-12-20T12:12:46;1.92;;;1.83;;
19754;SDS011;10036;47.812;9.274;2023-12-20T12:15:13;1.85;;;1.75;;
19754;SDS011;10036;47.812;9.274;2023-12-20T12:17:41;1.90;;;1.80;;
19754;SDS011;10036;47.812;9.274;2023-12-20T12:20:09;1.73;;;1.63;;
19754;SDS011;10036;47.812;9.274;2023-12-20T12:22:37;1.27;;;1.27;;
19754;SDS011;10036;47.812;9.274;2023-12-20T12:25:10;1.40;;;1.30;;
19754;SDS011;10036;47.812;9.274;2023-12-20T12:27:39;1.70;;;1.60;;
19754;SDS011;10036;47.812;9.274;2023-12-20T12:30:08;2.13;;;1.92;;
19754;SDS011;10036;47.812;9.274;2023-12-20T12:32:38;4.22;;;2.70;;
19754;SDS011;10036;47.812;9.274;2023-12-20T12:35:05;2.42;;;2.22;;
19754;SDS011;10036;47.812;9.274;2023-12-20T12:37:35;1.85;;;1.75;;
19754;SDS011;10036;47.812;9.274;2023-12-20T12:40:05;2.45;;;1.83;;
19754;SDS011;10036;47.812;9.274;2023-12-20T12:42:32;1.48;;;1.38;;
19754;SDS011;10036;47.812;9.274;2023-12-20T12:44:59;1.20;;;1.20;;
19754;SDS011;10036;47.812;9.274;2023-12-20T12:47:26;1.63;;;1.50;;
19754;SDS011;10036;47.812;9.274;2023-12-20T12:49:53;1.17;;;1.17;;
19754;SDS011;10036;47.812;9.274;2023-12-20T12:52:19;1.40;;;1.30;;
19754;SDS011;10036;47.812;9.274;2023-12-20T12:54:48;1.50;;;1.40;;
19754;SDS011;10036;47.812;9.274;2023-12-20T12:57:15;1.80;;;1.70;;
19754;SDS011;10036;47.812;9.274;2023-12-20T12:59:42;1.98;;;1.88;;
19754;SDS011;10036;47.812;9.274;2023-12-20T13:02:11;1.77;;;1.67;;
19754;SDS011;10036;47.812;9.274;2023-12-20T13:04:38;1.75;;;1.65;;
19754;SDS011;10036;47.812;9.274;2023-12-20T13:07:05;1.83;;;1.73;;
19754;SDS011;10036;47.812;9.274;2023-12-20T13:09:32;1.33;;;1.25;;
19754;SDS011;10036;47.812;9.274;2023-12-20T13:12:01;1.70;;;1.60;;
19754;SDS011;10036;47.812;9.274;2023-12-20T13:14:29;2.20;;;2.00;;
19754;SDS011;10036;47.812;9.274;2023-12-20T13:16:55;3.50;;;1.75;;
19754;SDS011;10036;47.812;9.274;2023-12-20T13:19:21;3.42;;;1.80;;
19754;SDS011;10036;47.812;9.274;2023-12-20T13:21:48;1.48;;;1.38;;
19754;SDS011;10036;47.812;9.274;2023-12-20T13:24:15;1.55;;;1.45;;
19754;SDS011;10036;47.812;9.274;2023-12-20T13:26:42;2.35;;;1.50;;
19754;SDS011;10036;47.812;9.274;2023-12-20T13:29:10;1.60;;;1.50;;
19754;SDS011;10036;47.812;9.274;2023-12-20T13:31:37;2.40;;;1.90;;
19754;SDS011;10036;47.812;9.274;2023-12-20T13:34:05;1.88;;;1.48;;
19754;SDS011;10036;47.812;9.274;2023-12-20T13:36:31;2.33;;;1.58;;
19754;SDS011;10036;47.812;9.274;2023-12-20T13:38:58;1.67;;;1.58;;
19754;SDS011;10036;47.812;9.274;2023-12-20T13:41:25;1.88;;;1.77;;
19754;SDS011;10036;47.812;9.274;2023-12-20T13:43:51;2.00;;;1.90;;
19754;SDS011;10036;47.812;9.274;2023-12-20T13:46:20;2.13;;;1.70;;
19754;SDS011;10036;47.812;9.274;2023-12-20T13:48:48;1.90;;;1.80;;
19754;SDS011;10036;47.812;9.274;2023-12-20T13:51:15;2.38;;;2.17;;
19754;SDS011;10036;47.812;9.274;2023-12-20T13:53:42;4.43;;;2.15;;
19754;SDS011;10036;47.812;9.274;2023-12-20T13:56:08;2.08;;;1.98;;
19754;SDS011;10036;47.812;9.274;2023-12-20T13:58:35;2.17;;;2.08;;
19754;SDS011;10036;47.812;9.274;2023-12-20T14:01:02;1.95;;;1.85;;
19754;SDS011;10036;47.812;9.274;2023-12-20T14:03:30;1.85;;;1.70;;
19754;SDS011;10036;47.812;9.274;2023-12-20T14:05:57;1.88;;;1.77;;
19754;SDS011;10036;47.812;9.274;2023-12-20T14:08:24;1.83;;;1.67;;
19754;SDS011;10036;47.812;9.274;2023-12-20T14:10:52;2.13;;;1.60;;
19754;SDS011;10036;47.812;9.274;2023-12-20T14:13:18;1.80;;;1.70;;
19754;SDS011;10036;47.812;9.274;2023-12-20T14:15:46;3.55;;;1.85;;
19754;SDS011;10036;47.812;9.274;2023-12-20T14:18:14;2.40;;;1.90;;
19754;SDS011;10036;47.812;9.274;2023-12-20T14:20:43;1.65;;;1.55;;
19754;SDS011;10036;47.812;9.274;2023-12-20T14:23:12;3.22;;;1.80;;
19754;SDS011;10036;47.812;9.274;2023-12-20T14:25:40;1.58;;;1.48;;
19754;SDS011;10036;47.812;9.274;2023-12-20T14:28:07;3.05;;;1.73;;
19754;SDS011;10036;47.812;9.274;2023-12-20T14:30:35;6.00;;;2.20;;
19754;SDS011;10036;47.812;9.274;2023-12-20T14:33:03;5.53;;;2.70;;
19754;SDS011;10036;47.812;9.274;2023-12-20T14:35:30;4.18;;;2.30;;
19754;SDS011;10036;47.812;9.274;2023-12-20T14:37:59;4.70;;;2.40;;
19754;SDS011;10036;47.812;9.274;2023-12-20T14:40:26;6.47;;;2.88;;
19754;SDS011;10036;47.812;9.274;2023-12-20T14:42:53;6.00;;;2.38;;
19754;SDS011;10036;47.812;9.274;2023-12-20T14:45:19;4.80;;;2.60;;
19754;SDS011;10036;47.812;9.274;2023-12-20T14:47:46;4.90;;;1.90;;
19754;SDS011;10036;47.812;9.274;2023-12-20T14:50:14;6.93;;;2.70;;